createdAt,value
2023-08-18T00:04:17.591Z,1000
2023-08-18T00:09:17.543Z,1000
2023-08-18T00:14:16.965Z,999.6
2023-08-18T00:19:17.444Z,999.6
2023-08-18T00:24:17.696Z,999.9
2023-08-18T00:29:17.657Z,999.9
2023-08-18T00:34:16.155Z,999.7
2023-08-18T00:39:16.230Z,1000
2023-08-18T00:49:15.974Z,999.7
2023-08-18T00:54:15.339Z,999.6
2023-08-18T00:59:15.198Z,999.5
2023-08-18T01:04:15.538Z,999.6
2023-08-18T01:09:15.000Z,999.4
2023-08-18T01:14:14.986Z,999.4
2023-08-18T01:19:12.438Z,999.8
2023-08-18T01:24:11.840Z,999.3
2023-08-18T01:34:11.652Z,999.8
2023-08-18T01:39:11.267Z,999.4
2023-08-18T01:44:11.141Z,999.4
2023-08-18T01:49:11.935Z,999.8
2023-08-18T01:54:11.582Z,999.8
2023-08-18T01:59:09.450Z,999.7
2023-08-18T02:04:09.699Z,999.7
2023-08-18T02:09:09.270Z,999.5
2023-08-18T02:14:08.879Z,999.3
2023-08-18T02:19:08.770Z,999.6
2023-08-18T02:24:08.910Z,999.2
2023-08-18T02:29:08.524Z,999.5
2023-08-18T02:39:05.932Z,999.1
2023-08-18T02:44:05.183Z,999.3
2023-08-18T02:49:05.011Z,999.1
2023-08-18T02:54:05.241Z,999.1
2023-08-18T02:59:04.198Z,999
2023-08-18T03:04:04.223Z,999.2
2023-08-18T03:09:04.473Z,999.4
2023-08-18T03:14:04.099Z,999.3
2023-08-18T03:19:04.819Z,999.5
2023-08-18T03:24:00.921Z,999.3
2023-08-18T03:29:00.526Z,999.7
2023-08-18T03:34:00.706Z,999.8
2023-08-18T03:39:00.202Z,999.4
2023-08-18T03:44:00.075Z,999.4
2023-08-18T03:49:00.880Z,999.8
2023-08-18T03:54:00.176Z,999.4
2023-08-18T03:59:01.001Z,999.5
2023-08-18T04:01:02.868Z,999.7
2023-08-18T04:05:22.003Z,999.5
2023-08-18T04:10:21.972Z,999.4
2023-08-18T04:15:22.051Z,999.5
2023-08-18T04:20:21.787Z,999.7
2023-08-18T04:25:21.884Z,999.4
2023-08-18T04:30:22.771Z,999.9
2023-08-18T04:40:20.896Z,999.4
2023-08-18T04:45:21.139Z,999.7
2023-08-18T04:50:20.843Z,999.6
2023-08-18T04:55:20.787Z,999.6
2023-08-18T04:59:42.468Z,1000
2023-08-18T05:04:42.331Z,999.9
2023-08-18T05:09:42.040Z,999.7
2023-08-18T05:14:41.966Z,999.9
2023-08-18T05:19:40.516Z,999.9
2023-08-18T05:24:40.787Z,999.7
2023-08-18T05:39:40.284Z,999.8
2023-08-18T05:44:40.163Z,999.6
2023-08-18T05:49:40.667Z,1000
2023-08-18T05:54:43.103Z,999.7
2023-08-18T05:59:31.354Z,999.7
2023-08-18T06:04:28.882Z,999.8
2023-08-18T06:09:28.299Z,1000.1
2023-08-18T06:19:28.231Z,1000.1
2023-08-18T06:24:28.037Z,1000
2023-08-18T06:29:27.997Z,1000
2023-08-18T06:34:28.477Z,1000.3
2023-08-18T06:39:33.348Z,1000.2
2023-08-18T06:44:29.406Z,1000.5
2023-08-18T06:49:25.704Z,1000.3
2023-08-18T06:54:25.534Z,1000.5
2023-08-18T06:59:26.317Z,1000.5
2023-08-18T07:04:26.393Z,1000.2
2023-08-18T07:09:26.050Z,1000.2
2023-08-18T07:14:26.857Z,1000.3
2023-08-18T07:19:26.990Z,1000.5
2023-08-18T07:24:29.638Z,1000.3
2023-08-18T07:29:24.151Z,1000.4
2023-08-18T07:34:23.790Z,1000.4
2023-08-18T07:39:23.643Z,1000.5
2023-08-18T07:49:23.873Z,1000.5
2023-08-18T07:54:24.155Z,1000.5
2023-08-18T07:59:45.071Z,1000.5
2023-08-18T08:04:25.330Z,1000.6
2023-08-18T08:09:23.827Z,1000.6
2023-08-18T08:14:24.042Z,1000.7
2023-08-18T08:19:23.791Z,1000.5
2023-08-18T08:24:23.832Z,1000.5
2023-08-18T08:29:23.815Z,1000.6
2023-08-18T08:34:24.068Z,1000.6
2023-08-18T08:39:24.503Z,1000.9
2023-08-18T08:44:24.411Z,1000.7
2023-08-18T08:49:26.079Z,1000.7
2023-08-18T08:54:23.274Z,1000.8
2023-08-18T08:59:22.747Z,1000.6
2023-08-18T09:04:25.161Z,1000.5
2023-08-18T09:09:22.496Z,1000.9
2023-08-18T09:14:22.373Z,1000.7
2023-08-18T09:19:27.083Z,1000.8
2023-08-18T09:24:22.308Z,1000.6
2023-08-18T09:29:22.262Z,1000.6
2023-08-18T09:34:19.524Z,1000.6
2023-08-18T09:39:18.991Z,1000.4
2023-08-18T09:44:18.916Z,1000.4
2023-08-18T09:49:19.194Z,1000.4
2023-08-18T09:54:18.858Z,1000.4
2023-08-18T09:59:16.891Z,1000.4
2023-08-18T10:04:17.152Z,1000.2
2023-08-18T10:09:17.457Z,1000.3
2023-08-18T10:14:14.745Z,1000.2
2023-08-18T10:19:14.189Z,1000.2
2023-08-18T10:24:13.553Z,1000.3
2023-08-18T10:29:19.798Z,999.9
2023-08-18T10:34:13.393Z,1000.2
2023-08-18T10:39:13.232Z,999.9
2023-08-18T10:44:13.617Z,1000.2
2023-08-18T10:49:13.558Z,1000.2
2023-08-18T10:54:14.466Z,1000.2
2023-08-18T10:59:10.656Z,999.7
2023-08-18T11:04:10.323Z,1000
2023-08-18T11:09:10.337Z,1000
2023-08-18T11:14:10.358Z,1000.3
2023-08-18T11:19:10.392Z,1000.2
2023-08-18T11:24:10.186Z,1000.2
2023-08-18T11:29:09.688Z,1000.2
2023-08-18T11:34:09.584Z,1000.1
2023-08-18T11:39:08.120Z,1000
2023-08-18T11:44:08.180Z,1000.1
2023-08-18T11:49:08.092Z,999.8
2023-08-18T11:54:08.555Z,1000
2023-08-18T11:59:08.172Z,999.8
2023-08-18T12:01:10.085Z,1000
2023-08-18T12:05:43.635Z,999.8
2023-08-18T12:10:44.390Z,999.9
2023-08-18T12:15:30.759Z,999.7
2023-08-18T12:20:30.345Z,999.9
2023-08-18T12:25:30.440Z,999.8
2023-08-18T12:30:30.243Z,999.6
2023-08-18T12:35:30.020Z,999.5
2023-08-18T12:40:30.236Z,999.4
2023-08-18T12:45:29.881Z,999.5
2023-08-18T12:50:31.208Z,999.6
2023-08-18T12:55:27.227Z,999.6
2023-08-18T12:59:47.856Z,999.4
2023-08-18T13:04:48.003Z,999.4
2023-08-18T13:09:48.073Z,999.3
2023-08-18T13:14:47.765Z,999.3
2023-08-18T13:19:49.447Z,999.4
2023-08-18T13:24:47.505Z,999.2
2023-08-18T13:29:48.146Z,999
2023-08-18T13:34:45.023Z,999.1
2023-08-18T13:39:44.179Z,999.3
2023-08-18T13:44:43.929Z,999.1
2023-08-18T13:49:43.779Z,999.1
2023-08-18T13:54:44.074Z,999.1
2023-08-18T13:59:46.605Z,998.9
2023-08-18T14:04:47.332Z,998.8
2023-08-18T14:09:48.118Z,998.9
2023-08-18T14:14:44.219Z,999
2023-08-18T14:19:44.651Z,999
2023-08-18T14:24:44.539Z,999.1
2023-08-18T14:29:44.988Z,998.9
2023-08-18T14:34:45.172Z,998.9
2023-08-18T14:39:45.803Z,999.1
2023-08-18T14:44:43.881Z,998.9
2023-08-18T14:49:44.081Z,998.9
2023-08-18T14:54:44.684Z,998.8
2023-08-18T14:59:15.682Z,998.9
2023-08-18T15:01:19.025Z,998.8
2023-08-18T15:05:39.769Z,998.9
2023-08-18T15:10:39.649Z,998.9
2023-08-18T15:15:38.447Z,998.8
2023-08-18T15:20:38.161Z,998.8
2023-08-18T15:25:48.493Z,998.9
2023-08-18T15:30:48.406Z,998.9
2023-08-18T15:35:48.943Z,998.6
2023-08-18T15:40:49.001Z,998.6
2023-08-18T15:45:38.889Z,998.8
2023-08-18T15:50:39.653Z,998.8
2023-08-18T15:55:46.520Z,998.8
2023-08-18T16:00:07.429Z,998.7
2023-08-18T16:05:10.267Z,998.7
2023-08-18T16:10:06.192Z,998.4
2023-08-18T16:15:27.979Z,998.5
2023-08-18T16:20:06.423Z,998.7
2023-08-18T16:25:06.094Z,998.5
2023-08-18T16:30:06.018Z,998.5
2023-08-18T16:35:03.374Z,998.6
2023-08-18T16:40:02.838Z,998.4
2023-08-18T16:45:02.700Z,998.3
2023-08-18T16:50:02.109Z,998.3
2023-08-18T16:55:01.852Z,998.3
2023-08-18T16:59:43.172Z,998.3
2023-08-18T17:04:39.902Z,998.6
2023-08-18T17:09:39.817Z,998.6
2023-08-18T17:14:47.636Z,998.4
2023-08-18T17:19:47.881Z,998.4
2023-08-18T17:24:47.657Z,998.6
2023-08-18T17:29:48.120Z,998.3
2023-08-18T17:34:48.146Z,998.4
2023-08-18T17:39:48.810Z,998.6
2023-08-18T17:44:49.313Z,998.6
2023-08-18T17:49:46.102Z,998.5
2023-08-18T17:54:46.420Z,998.7
2023-08-18T17:59:18.885Z,998.4
2023-08-18T18:04:18.527Z,998.6
2023-08-18T18:09:18.410Z,998.5
2023-08-18T18:14:19.033Z,998.4
2023-08-18T18:19:20.216Z,998.4
2023-08-18T18:24:16.318Z,998.5
2023-08-18T18:29:16.229Z,998.5
2023-08-18T18:34:16.073Z,998.3
2023-08-18T18:39:15.679Z,998.6
2023-08-18T18:44:15.337Z,998.4
2023-08-18T18:49:15.449Z,998.6
2023-08-18T18:54:15.034Z,998.4
2023-08-18T18:59:15.893Z,998.5
2023-08-18T19:04:12.074Z,998.5
2023-08-18T19:09:16.420Z,998.8
2023-08-18T19:14:11.062Z,998.6
2023-08-18T19:19:11.231Z,998.7
2023-08-18T19:24:10.812Z,998.6
2023-08-18T19:29:11.772Z,998.5
2023-08-18T19:34:12.538Z,998.6
2023-08-18T19:39:16.160Z,998.6
2023-08-18T19:44:09.372Z,998.9
2023-08-18T19:49:09.416Z,998.9
2023-08-18T19:54:09.231Z,998.8
2023-08-18T19:59:09.557Z,998.9
2023-08-18T20:01:11.622Z,998.9
2023-08-18T20:05:43.674Z,998.9
2023-08-18T20:10:48.193Z,998.6
2023-08-18T20:15:42.256Z,998.9
2023-08-18T20:20:42.172Z,998.6
2023-08-18T20:25:31.193Z,998.5
2023-08-18T20:30:31.262Z,998.8
2023-08-18T20:35:31.040Z,998.7
2023-08-18T20:40:31.088Z,998.6
2023-08-18T20:45:31.339Z,998.7
2023-08-18T20:50:31.250Z,998.8
2023-08-18T20:55:29.643Z,999
2023-08-18T20:59:50.001Z,998.8
2023-08-18T21:04:49.757Z,998.8
2023-08-18T21:09:52.697Z,998.8
2023-08-18T21:14:49.193Z,998.8
2023-08-18T21:19:48.956Z,998.8
2023-08-18T21:24:49.280Z,998.7
2023-08-18T21:29:50.232Z,998.7
2023-08-18T21:34:47.941Z,998.6
2023-08-18T21:39:48.218Z,998.7
2023-08-18T21:44:47.736Z,998.5
2023-08-18T21:49:47.886Z,998.5
2023-08-18T21:54:47.342Z,998.7
2023-08-18T21:59:47.056Z,998.5
2023-08-18T22:09:47.189Z,998.5
2023-08-18T22:14:44.318Z,998.9
2023-08-18T22:19:44.922Z,998.9
2023-08-18T22:24:44.241Z,998.7
2023-08-18T22:29:44.591Z,998.9
2023-08-18T22:34:44.815Z,998.8
2023-08-18T22:39:45.429Z,998.7
2023-08-18T22:44:48.653Z,998.8
2023-08-18T22:49:43.183Z,998.8
2023-08-18T22:54:43.634Z,998.6
2023-08-18T22:59:17.042Z,998.5
2023-08-18T23:04:16.823Z,998.8
2023-08-18T23:09:17.337Z,998.5
2023-08-18T23:14:17.248Z,998.5
2023-08-18T23:19:18.033Z,998.6
2023-08-18T23:24:14.101Z,998.6
2023-08-18T23:29:13.736Z,998.5
2023-08-18T23:34:13.604Z,998.9
2023-08-18T23:39:13.860Z,998.6
2023-08-18T23:44:13.438Z,998.9
2023-08-18T23:49:13.430Z,998.8
2023-08-18T23:54:13.785Z,998.9
2023-08-18T23:59:13.787Z,998.9
